sensor_id;sensor_type;location;lat;lon;timestamp;pressure;altitude;pressure_sealevel;temperature;humidity
76404;BME280;65232;48.358;2.122;2024-01-30T00:00:14;102069.66;;;6.45;100.00
76404;BME280;65232;48.358;2.122;2024-01-30T00:00:40;102072.41;;;6.43;100.00
76404;BME280;65232;48.358;2.122;2024-01-30T00:01:05;102070.34;;;6.50;100.00
76404;BME280;65232;48.358;2.122;2024-01-30T00:01:31;102074.56;;;6.54;100.00
76404;BME280;65232;48.358;2.122;2024-01-30T00:01:56;102072.69;;;6.56;100.00
76404;BME280;65232;48.358;2.122;2024-01-30T00:02:22;102070.09;;;6.54;100.00
76404;BME280;65232;48.358;2.122;2024-01-30T00:02:49;102066.00;;;6.47;100.00
76404;BME280;65232;48.358;2.122;2024-01-30T00:03:15;102069.81;;;6.42;100.00
76404;BME280;65232;48.358;2.122;2024-01-30T00:03:40;102068.88;;;6.43;100.00
76404;BME280;65232;48.358;2.122;2024-01-30T00:04:06;102075.06;;;6.43;100.00
76404;BME280;65232;48.358;2.122;2024-01-30T00:04:32;102068.94;;;6.41;100.00
76404;BME280;65232;48.358;2.122;2024-01-30T00:04:57;102067.28;;;6.38;100.00
76404;BME280;65232;48.358;2.122;2024-01-30T00:05:22;102071.66;;;6.40;100.00
76404;BME280;65232;48.358;2.122;2024-01-30T00:05:48;102073.56;;;6.38;100.00
76404;BME280;65232;48.358;2.122;2024-01-30T00:06:13;102070.03;;;6.37;100.00
76404;BME280;65232;48.358;2.122;2024-01-30T00:06:39;102076.06;;;6.41;100.00
76404;BME280;65232;48.358;2.122;2024-01-30T00:07:04;102064.50;;;6.42;100.00
76404;BME280;65232;48.358;2.122;2024-01-30T00:07:30;102079.50;;;6.43;100.00
76404;BME280;65232;48.358;2.122;2024-01-30T00:07:55;102071.53;;;6.43;100.00
76404;BME280;65232;48.358;2.122;2024-01-30T00:08:21;102068.81;;;6.44;100.00
76404;BME280;65232;48.358;2.122;2024-01-30T00:08:47;102072.19;;;6.48;100.00
76404;BME280;65232;48.358;2.122;2024-01-30T00:09:14;102075.66;;;6.50;100.00
76404;BME280;65232;48.358;2.122;2024-01-30T00:09:39;102069.25;;;6.54;100.00
76404;BME280;65232;48.358;2.122;2024-01-30T00:10:05;102065.88;;;6.50;100.00
76404;BME280;65232;48.358;2.122;2024-01-30T00:10:31;102070.34;;;6.50;100.00
76404;BME280;65232;48.358;2.122;2024-01-30T00:10:56;102067.53;;;6.53;100.00
76404;BME280;65232;48.358;2.122;2024-01-30T00:11:22;102072.06;;;6.51;100.00
76404;BME280;65232;48.358;2.122;2024-01-30T00:11:50;102074.66;;;6.52;100.00
76404;BME280;65232;48.358;2.122;2024-01-30T00:12:16;102069.03;;;6.58;100.00
76404;BME280;65232;48.358;2.122;2024-01-30T00:12:41;102068.97;;;6.60;100.00
76404;BME280;65232;48.358;2.122;2024-01-30T00:13:07;102073.63;;;6.55;100.00
76404;BME280;65232;48.358;2.122;2024-01-30T00:13:32;102064.78;;;6.54;100.00
76404;BME280;65232;48.358;2.122;2024-01-30T00:13:58;102070.78;;;6.59;100.00
76404;BME280;65232;48.358;2.122;2024-01-30T00:14:24;102068.78;;;6.64;100.00
76404;BME280;65232;48.358;2.122;2024-01-30T00:14:49;102069.63;;;6.65;100.00
76404;BME280;65232;48.358;2.122;2024-01-30T00:15:15;102067.78;;;6.67;100.00
76404;BME280;65232;48.358;2.122;2024-01-30T00:15:40;102060.00;;;6.62;100.00
76404;BME280;65232;48.358;2.122;2024-01-30T00:16:06;102064.38;;;6.63;100.00
76404;BME280;65232;48.358;2.122;2024-01-30T00:16:32;102061.94;;;6.59;100.00
76404;BME280;65232;48.358;2.122;2024-01-30T00:16:57;102067.19;;;6.60;100.00
76404;BME280;65232;48.358;2.122;2024-01-30T00:17:23;102072.38;;;6.63;100.00
76404;BME280;65232;48.358;2.122;2024-01-30T00:17:50;102062.94;;;6.56;100.00
76404;BME280;65232;48.358;2.122;2024-01-30T00:18:17;102071.78;;;6.57;100.00
76404;BME280;65232;48.358;2.122;2024-01-30T00:18:43;102066.59;;;6.54;100.00
76404;BME280;65232;48.358;2.122;2024-01-30T00:19:09;102066.31;;;6.60;100.00
76404;BME280;65232;48.358;2.122;2024-01-30T00:19:35;102066.50;;;6.55;100.00
76404;BME280;65232;48.358;2.122;2024-01-30T00:20:00;102069.25;;;6.54;100.00
76404;BME280;65232;48.358;2.122;2024-01-30T00:20:25;102064.78;;;6.54;100.00
76404;BME280;65232;48.358;2.122;2024-01-30T00:20:51;102063.00;;;6.55;100.00
76404;BME280;65232;48.358;2.122;2024-01-30T00:21:17;102066.69;;;6.52;100.00
76404;BME280;65232;48.358;2.122;2024-01-30T00:21:42;102062.38;;;6.50;100.00
76404;BME280;65232;48.358;2.122;2024-01-30T00:22:08;102065.81;;;6.52;100.00
76404;BME280;65232;48.358;2.122;2024-01-30T00:22:33;102069.53;;;6.48;100.00
76404;BME280;65232;48.358;2.122;2024-01-30T00:22:59;102062.50;;;6.47;100.00
76404;BME280;65232;48.358;2.122;2024-01-30T00:23:24;102061.38;;;6.52;100.00
76404;BME280;65232;48.358;2.122;2024-01-30T00:23:49;102062.38;;;6.50;100.00
76404;BME280;65232;48.358;2.122;2024-01-30T00:24:15;102065.72;;;6.53;100.00
76404;BME280;65232;48.358;2.122;2024-01-30T00:24:40;102063.59;;;6.61;100.00
76404;BME280;65232;48.358;2.122;2024-01-30T00:25:06;102065.53;;;6.58;100.00
76404;BME280;65232;48.358;2.122;2024-01-30T00:25:32;102070.91;;;6.56;100.00
76404;BME280;65232;48.358;2.122;2024-01-30T00:25:58;102068.25;;;6.56;100.00
76404;BME280;65232;48.358;2.122;2024-01-30T00:26:24;102063.06;;;6.53;100.00
76404;BME280;65232;48.358;2.122;2024-01-30T00:26:49;102071.19;;;6.50;100.00
76404;BME280;65232;48.358;2.122;2024-01-30T00:27:14;102060.41;;;6.53;100.00
76404;BME280;65232;48.358;2.122;2024-01-30T00:27:40;102058.28;;;6.61;100.00
76404;BME280;65232;48.358;2.122;2024-01-30T00:28:05;102067.31;;;6.57;100.00
76404;BME280;65232;48.358;2.122;2024-01-30T00:28:31;102066.44;;;6.57;100.00
76404;BME280;65232;48.358;2.122;2024-01-30T00:28:56;102070.22;;;6.53;100.00
76404;BME280;65232;48.358;2.122;2024-01-30T00:29:22;102063.00;;;6.55;100.00
76404;BME280;65232;48.358;2.122;2024-01-30T00:29:48;102065.66;;;6.55;100.00
76404;BME280;65232;48.358;2.122;2024-01-30T00:30:14;102060.34;;;6.55;100.00
76404;BME280;65232;48.358;2.122;2024-01-30T00:30:40;102069.25;;;6.54;100.00
76404;BME280;65232;48.358;2.122;2024-01-30T00:31:05;102069.25;;;6.54;100.00
76404;BME280;65232;48.358;2.122;2024-01-30T00:31:31;102070.97;;;6.55;100.00
76404;BME280;65232;48.358;2.122;2024-01-30T00:31:57;102068.25;;;6.56;100.00
76404;BME280;65232;48.358;2.122;2024-01-30T00:32:22;102069.09;;;6.57;100.00
76404;BME280;65232;48.358;2.122;2024-01-30T00:32:48;102068.25;;;6.56;100.00
76404;BME280;65232;48.358;2.122;2024-01-30T00:33:14;102063.94;;;6.54;100.00
76404;BME280;65232;48.358;2.122;2024-01-30T00:33:40;102063.00;;;6.55;100.00
76404;BME280;65232;48.358;2.122;2024-01-30T00:34:06;102073.63;;;6.55;100.00
76404;BME280;65232;48.358;2.122;2024-01-30T00:34:31;102070.22;;;6.53;100.00
76404;BME280;65232;48.358;2.122;2024-01-30T00:34:56;102060.41;;;6.53;100.00
76404;BME280;65232;48.358;2.122;2024-01-30T00:35:22;102068.91;;;6.61;100.00
76404;BME280;65232;48.358;2.122;2024-01-30T00:35:48;102066.38;;;6.58;100.00
76404;BME280;65232;48.358;2.122;2024-01-30T00:36:13;102063.72;;;6.58;100.00
76404;BME280;65232;48.358;2.122;2024-01-30T00:36:39;102067.31;;;6.57;100.00
76404;BME280;65232;48.358;2.122;2024-01-30T00:37:04;102066.50;;;6.55;100.00
76404;BME280;65232;48.358;2.122;2024-01-30T00:37:29;102072.69;;;6.56;100.00
76404;BME280;65232;48.358;2.122;2024-01-30T00:37:56;102060.34;;;6.55;100.00
76404;BME280;65232;48.358;2.122;2024-01-30T00:38:22;102063.94;;;6.54;100.00
76404;BME280;65232;48.358;2.122;2024-01-30T00:38:48;102063.06;;;6.53;100.00
76404;BME280;65232;48.358;2.122;2024-01-30T00:39:13;102070.34;;;6.50;100.00
76404;BME280;65232;48.358;2.122;2024-01-30T00:39:41;102064.88;;;6.53;100.00
76404;BME280;65232;48.358;2.122;2024-01-30T00:40:06;102062.22;;;6.53;100.00
76404;BME280;65232;48.358;2.122;2024-01-30T00:40:32;102065.94;;;6.49;100.00
76404;BME280;65232;48.358;2.122;2024-01-30T00:40:58;102065.03;;;6.50;100.00
76404;BME280;65232;48.358;2.122;2024-01-30T00:41:23;102064.97;;;6.51;100.00
76404;BME280;65232;48.358;2.122;2024-01-30T00:41:49;102062.38;;;6.50;100.00
76404;BME280;65232;48.358;2.122;2024-01-30T00:42:14;102068.47;;;6.52;100.00
76404;BME280;65232;48.358;2.122;2024-01-30T00:42:40;102062.22;;;6.53;100.00
76404;BME280;65232;48.358;2.122;2024-01-30T00:43:05;102065.94;;;6.49;100.00
76404;BME280;65232;48.358;2.122;2024-01-30T00:43:31;102068.81;;;6.44;100.00
76404;BME280;65232;48.358;2.122;2024-01-30T00:43:56;102061.50;;;6.49;100.00
76404;BME280;65232;48.358;2.122;2024-01-30T00:44:22;102068.31;;;6.55;100.00
76404;BME280;65232;48.358;2.122;2024-01-30T00:44:47;102063.84;;;6.55;100.00
76404;BME280;65232;48.358;2.122;2024-01-30T00:45:15;102068.25;;;6.56;100.00
76404;BME280;65232;48.358;2.122;2024-01-30T00:45:43;102063.84;;;6.55;100.00
76404;BME280;65232;48.358;2.122;2024-01-30T00:46:09;102062.94;;;6.56;100.00
76404;BME280;65232;48.358;2.122;2024-01-30T00:46:34;102062.06;;;6.56;100.00
76404;BME280;65232;48.358;2.122;2024-01-30T00:46:59;102070.03;;;6.56;100.00
76404;BME280;65232;48.358;2.122;2024-01-30T00:47:25;102069.34;;;6.52;100.00
76404;BME280;65232;48.358;2.122;2024-01-30T00:47:50;102064.16;;;6.49;100.00
76404;BME280;65232;48.358;2.122;2024-01-30T00:48:16;102059.47;;;6.54;100.00
76404;BME280;65232;48.358;2.122;2024-01-30T00:48:41;102069.09;;;6.57;100.00
76404;BME280;65232;48.358;2.122;2024-01-30T00:49:07;102064.16;;;6.49;100.00
76404;BME280;65232;48.358;2.122;2024-01-30T00:49:32;102063.44;;;6.46;100.00
76404;BME280;65232;48.358;2.122;2024-01-30T00:49:57;102066.00;;;6.47;100.00
76404;BME280;65232;48.358;2.122;2024-01-30T00:50:23;102067.88;;;6.45;100.00
76404;BME280;65232;48.358;2.122;2024-01-30T00:50:48;102069.59;;;6.46;100.00
76404;BME280;65232;48.358;2.122;2024-01-30T00:51:14;102066.16;;;6.44;100.00
76404;BME280;65232;48.358;2.122;2024-01-30T00:51:40;102070.53;;;6.45;100.00
76404;BME280;65232;48.358;2.122;2024-01-30T00:52:05;102070.53;;;6.45;100.00
76404;BME280;65232;48.358;2.122;2024-01-30T00:52:31;102067.69;;;6.50;100.00
76404;BME280;65232;48.358;2.122;2024-01-30T00:52:58;102063.28;;;6.49;100.00
76404;BME280;65232;48.358;2.122;2024-01-30T00:53:23;102073.06;;;6.48;100.00
76404;BME280;65232;48.358;2.122;2024-01-30T00:53:49;102071.13;;;6.52;100.00
76404;BME280;65232;48.358;2.122;2024-01-30T00:54:14;102065.09;;;6.48;100.00
76404;BME280;65232;48.358;2.122;2024-01-30T00:54:39;102068.59;;;6.49;100.00
76404;BME280;65232;48.358;2.122;2024-01-30T00:55:05;102072.13;;;6.49;100.00
76404;BME280;65232;48.358;2.122;2024-01-30T00:55:31;102067.69;;;6.50;100.00
76404;BME280;65232;48.358;2.122;2024-01-30T00:55:56;102071.13;;;6.52;100.00
76404;BME280;65232;48.358;2.122;2024-01-30T00:56:21;102066.81;;;6.49;100.00
76404;BME280;65232;48.358;2.122;2024-01-30T00:56:47;102070.53;;;6.45;100.00
76404;BME280;65232;48.358;2.122;2024-01-30T00:57:12;102068.59;;;6.49;100.00
76404;BME280;65232;48.358;2.122;2024-01-30T00:57:38;102075.66;;;6.50;100.00
76404;BME280;65232;48.358;2.122;2024-01-30T00:58:04;102071.19;;;6.50;100.00
76404;BME280;65232;48.358;2.122;2024-01-30T00:58:30;102068.59;;;6.49;100.00
76404;BME280;65232;48.358;2.122;2024-01-30T00:58:55;102073.94;;;6.49;100.00
76404;BME280;65232;48.358;2.122;2024-01-30T00:59:21;102071.41;;;6.46;100.00
76404;BME280;65232;48.358;2.122;2024-01-30T00:59:46;102075.00;;;6.45;100.00
76404;BME280;65232;48.358;2.122;2024-01-30T01:00:12;102077.53;;;6.48;100.00
76404;BME280;65232;48.358;2.122;2024-01-30T01:00:38;102078.31;;;6.50;100.00
76404;BME280;65232;48.358;2.122;2024-01-30T01:01:04;102073.00;;;6.50;100.00
76404;BME280;65232;48.358;2.122;2024-01-30T01:01:30;102079.19;;;6.50;100.00
76404;BME280;65232;48.358;2.122;2024-01-30T01:01:55;102074.00;;;6.47;100.00
76404;BME280;65232;48.358;2.122;2024-01-30T01:02:21;102072.06;;;6.51;100.00
76404;BME280;65232;48.358;2.122;2024-01-30T01:02:46;102074.56;;;6.54;100.00
76404;BME280;65232;48.358;2.122;2024-01-30T01:03:12;102074.56;;;6.54;100.00
76404;BME280;65232;48.358;2.122;2024-01-30T01:03:39;102078.03;;;6.56;100.00
76404;BME280;65232;48.358;2.122;2024-01-30T01:04:06;102072.00;;;6.52;100.00
76404;BME280;65232;48.358;2.122;2024-01-30T01:04:32;102081.78;;;6.52;100.00
76404;BME280;65232;48.358;2.122;2024-01-30T01:04:57;102085.19;;;6.54;100.00
76404;BME280;65232;48.358;2.122;2024-01-30T01:05:23;102069.34;;;6.52;100.00
76404;BME280;65232;48.358;2.122;2024-01-30T01:05:48;102079.13;;;6.52;100.00
76404;BME280;65232;48.358;2.122;2024-01-30T01:06:14;102077.31;;;6.52;100.00
76404;BME280;65232;48.358;2.122;2024-01-30T01:06:39;102077.09;;;6.57;100.00
76404;BME280;65232;48.358;2.122;2024-01-30T01:07:07;102081.47;;;6.58;100.00
76404;BME280;65232;48.358;2.122;2024-01-30T01:07:33;102076.03;;;6.61;100.00
76404;BME280;65232;48.358;2.122;2024-01-30T01:07:58;102078.75;;;6.59;100.00
76404;BME280;65232;48.358;2.122;2024-01-30T01:08:24;102075.22;;;6.59;100.00
76404;BME280;65232;48.358;2.122;2024-01-30T01:08:50;102076.88;;;6.61;100.00
76404;BME280;65232;48.358;2.122;2024-01-30T01:09:15;102072.22;;;6.66;100.00
76404;BME280;65232;48.358;2.122;2024-01-30T01:09:41;102073.22;;;6.64;100.00
76404;BME280;65232;48.358;2.122;2024-01-30T01:10:07;102075.81;;;6.65;100.00
76404;BME280;65232;48.358;2.122;2024-01-30T01:10:33;102081.06;;;6.67;100.00
76404;BME280;65232;48.358;2.122;2024-01-30T01:10:59;102070.56;;;6.64;100.00
76404;BME280;65232;48.358;2.122;2024-01-30T01:11:24;102071.50;;;6.63;100.00
76404;BME280;65232;48.358;2.122;2024-01-30T01:11:50;102076.16;;;6.58;100.00
76404;BME280;65232;48.358;2.122;2024-01-30T01:12:15;102073.28;;;6.62;100.00
76404;BME280;65232;48.358;2.122;2024-01-30T01:12:41;102069.84;;;6.60;100.00
76404;BME280;65232;48.358;2.122;2024-01-30T01:13:06;102079.47;;;6.63;100.00
76404;BME280;65232;48.358;2.122;2024-01-30T01:13:32;102075.88;;;6.64;100.00
76404;BME280;65232;48.358;2.122;2024-01-30T01:13:57;102067.97;;;6.62;100.00
76404;BME280;65232;48.358;2.122;2024-01-30T01:14:23;102070.44;;;6.67;100.00
76404;BME280;65232;48.358;2.122;2024-01-30T01:14:48;102067.97;;;6.62;100.00
76404;BME280;65232;48.358;2.122;2024-01-30T01:15:14;102068.84;;;6.63;100.00
76404;BME280;65232;48.358;2.122;2024-01-30T01:15:39;102065.38;;;6.61;100.00
76404;BME280;65232;48.358;2.122;2024-01-30T01:16:05;102070.50;;;6.65;100.00
76404;BME280;65232;48.358;2.122;2024-01-30T01:16:31;102062.34;;;6.68;100.00
76404;BME280;65232;48.358;2.122;2024-01-30T01:16:56;102070.19;;;6.71;100.00
76404;BME280;65232;48.358;2.122;2024-01-30T01:17:21;102063.22;;;6.69;100.00
76404;BME280;65232;48.358;2.122;2024-01-30T01:17:47;102070.28;;;6.70;100.00
76404;BME280;65232;48.358;2.122;2024-01-30T01:18:12;102075.66;;;6.68;100.00
76404;BME280;65232;48.358;2.122;2024-01-30T01:18:38;102068.53;;;6.69;100.00
76404;BME280;65232;48.358;2.122;2024-01-30T01:19:03;102076.31;;;6.73;100.00
76404;BME280;65232;48.358;2.122;2024-01-30T01:19:29;102063.31;;;6.67;100.00
76404;BME280;65232;48.358;2.122;2024-01-30T01:19:55;102070.19;;;6.71;100.00
76404;BME280;65232;48.358;2.122;2024-01-30T01:20:20;102072.94;;;6.70;100.00
76404;BME280;65232;48.358;2.122;2024-01-30T01:20:46;102073.00;;;6.68;100.00
76404;BME280;65232;48.358;2.122;2024-01-30T01:21:11;102076.44;;;6.70;100.00
76404;BME280;65232;48.358;2.122;2024-01-30T01:21:37;102069.47;;;6.68;100.00
76404;BME280;65232;48.358;2.122;2024-01-30T01:22:02;102073.84;;;6.69;100.00
76404;BME280;65232;48.358;2.122;2024-01-30T01:22:28;102067.84;;;6.65;100.00
76404;BME280;65232;48.358;2.122;2024-01-30T01:22:53;102073.16;;;6.65;100.00
76404;BME280;65232;48.358;2.122;2024-01-30T01:23:19;102071.13;;;6.70;100.00
76404;BME280;65232;48.358;2.122;2024-01-30T01:23:45;102075.66;;;6.68;100.00
76404;BME280;65232;48.358;2.122;2024-01-30T01:24:10;102081.78;;;6.70;100.00
76404;BME280;65232;48.358;2.122;2024-01-30T01:24:36;102078.25;;;6.70;100.00
76404;BME280;65232;48.358;2.122;2024-01-30T01:25:02;102077.31;;;6.71;100.00
76404;BME280;65232;48.358;2.122;2024-01-30T01:25:27;102077.31;;;6.71;100.00
76404;BME280;65232;48.358;2.122;2024-01-30T01:25:52;102078.31;;;6.68;100.00
76404;BME280;65232;48.358;2.122;2024-01-30T01:26:18;102082.78;;;6.68;100.00
76404;BME280;65232;48.358;2.122;2024-01-30T01:26:43;102072.22;;;6.66;100.00
76404;BME280;65232;48.358;2.122;2024-01-30T01:27:09;102077.31;;;6.71;100.00
76404;BME280;65232;48.358;2.122;2024-01-30T01:27:34;102077.38;;;6.69;100.00
76404;BME280;65232;48.358;2.122;2024-01-30T01:28:05;102086.09;;;6.73;100.00
76404;BME280;65232;48.358;2.122;2024-01-30T01:28:31;102079.84;;;6.74;100.00
76404;BME280;65232;48.358;2.122;2024-01-30T01:28:56;102076.31;;;6.73;100.00
76404;BME280;65232;48.358;2.122;2024-01-30T01:29:21;102083.09;;;6.81;100.00
76404;BME280;65232;48.358;2.122;2024-01-30T01:29:53;102077.19;;;6.74;100.00
76404;BME280;65232;48.358;2.122;2024-01-30T01:30:19;102078.91;;;6.75;100.00
76404;BME280;65232;48.358;2.122;2024-01-30T01:30:46;102084.31;;;6.73;100.00
76404;BME280;65232;48.358;2.122;2024-01-30T01:31:12;102080.84;;;6.71;100.00
76404;BME280;65232;48.358;2.122;2024-01-30T01:31:38;102080.78;;;6.73;100.00
76404;BME280;65232;48.358;2.122;2024-01-30T01:32:09;102078.25;;;6.70;100.00
76404;BME280;65232;48.358;2.122;2024-01-30T01:32:35;102085.38;;;6.69;100.00
76404;BME280;65232;48.358;2.122;2024-01-30T01:33:00;102077.31;;;6.71;100.00
76404;BME280;65232;48.358;2.122;2024-01-30T01:33:27;102079.28;;;6.67;100.00
76404;BME280;65232;48.358;2.122;2024-01-30T01:33:53;102087.97;;;6.71;100.00
76404;BME280;65232;48.358;2.122;2024-01-30T01:34:18;102092.47;;;6.69;100.00
76404;BME280;65232;48.358;2.122;2024-01-30T01:34:43;102086.41;;;6.67;100.00
76404;BME280;65232;48.358;2.122;2024-01-30T01:35:09;102080.22;;;6.66;100.00
76404;BME280;65232;48.358;2.122;2024-01-30T01:35:34;102088.09;;;6.68;100.00
76404;BME280;65232;48.358;2.122;2024-01-30T01:36:00;102090.63;;;6.71;100.00
76404;BME280;65232;48.358;2.122;2024-01-30T01:36:27;102084.59;;;6.67;100.00
76404;BME280;65232;48.358;2.122;2024-01-30T01:36:53;102089.81;;;6.69;100.00
76404;BME280;65232;48.358;2.122;2024-01-30T01:37:20;102090.47;;;6.74;100.00
76404;BME280;65232;48.358;2.122;2024-01-30T01:37:47;102089.63;;;6.73;100.00
76404;BME280;65232;48.358;2.122;2024-01-30T01:38:13;102095.00;;;6.72;100.00
76404;BME280;65232;48.358;2.122;2024-01-30T01:38:38;102093.16;;;6.74;100.00
76404;BME280;65232;48.358;2.122;2024-01-30T01:39:03;102088.63;;;6.76;100.00
76404;BME280;65232;48.358;2.122;2024-01-30T01:39:29;102092.22;;;6.75;100.00
76404;BME280;65232;48.358;2.122;2024-01-30T01:39:54;102085.22;;;6.72;100.00
76404;BME280;65232;48.358;2.122;2024-01-30T01:40:23;102086.09;;;6.73;100.00
76404;BME280;65232;48.358;2.122;2024-01-30T01:40:49;102087.03;;;6.72;100.00
76404;BME280;65232;48.358;2.122;2024-01-30T01:41:14;102089.63;;;6.73;100.00
76404;BME280;65232;48.358;2.122;2024-01-30T01:41:40;102086.09;;;6.73;100.00
76404;BME280;65232;48.358;2.122;2024-01-30T01:42:05;102083.38;;;6.75;100.00
76404;BME280;65232;48.358;2.122;2024-01-30T01:42:31;102087.56;;;6.80;100.00
76404;BME280;65232;48.358;2.122;2024-01-30T01:42:57;102085.81;;;6.79;100.00
76404;BME280;65232;48.358;2.122;2024-01-30T01:43:22;102085.03;;;6.77;100.00
76404;BME280;65232;48.358;2.122;2024-01-30T01:43:48;102085.97;;;6.76;100.00
76404;BME280;65232;48.358;2.122;2024-01-30T01:44:13;102085.97;;;6.76;100.00
76404;BME280;65232;48.358;2.122;2024-01-30T01:44:39;102087.69;;;6.77;100.00
76404;BME280;65232;48.358;2.122;2024-01-30T01:45:04;102090.41;;;6.76;100.00
76404;BME280;65232;48.358;2.122;2024-01-30T01:45:30;102084.88;;;6.80;100.00
76404;BME280;65232;48.358;2.122;2024-01-30T01:45:56;102084.09;;;6.78;100.00
76404;BME280;65232;48.358;2.122;2024-01-30T01:46:22;102082.44;;;6.76;100.00
76404;BME280;65232;48.358;2.122;2024-01-30T01:46:48;102086.03;;;6.75;100.00
76404;BME280;65232;48.358;2.122;2024-01-30T01:47:14;102084.22;;;6.75;100.00
76404;BME280;65232;48.358;2.122;2024-01-30T01:47:40;102087.63;;;6.79;100.00
76404;BME280;65232;48.358;2.122;2024-01-30T01:48:06;102082.22;;;6.80;100.00
76404;BME280;65232;48.358;2.122;2024-01-30T01:48:33;102081.38;;;6.80;100.00
76404;BME280;65232;48.358;2.122;2024-01-30T01:49:00;102079.72;;;6.77;100.00
76404;BME280;65232;48.358;2.122;2024-01-30T01:49:27;102084.88;;;6.80;100.00
76404;BME280;65232;48.358;2.122;2024-01-30T01:49:53;102080.44;;;6.81;100.00
76404;BME280;65232;48.358;2.122;2024-01-30T01:50:20;102091.22;;;6.78;100.00
76404;BME280;65232;48.358;2.122;2024-01-30T01:50:45;102086.81;;;6.77;100.00
76404;BME280;65232;48.358;2.122;2024-01-30T01:51:11;102081.56;;;6.75;100.00
76404;BME280;65232;48.358;2.122;2024-01-30T01:51:37;102086.88;;;6.75;100.00
76404;BME280;65232;48.358;2.122;2024-01-30T01:52:05;102086.09;;;6.73;100.00
76404;BME280;65232;48.358;2.122;2024-01-30T01:52:31;102076.19;;;6.77;100.00
76404;BME280;65232;48.358;2.122;2024-01-30T01:52:56;102081.50;;;6.77;100.00
76404;BME280;65232;48.358;2.122;2024-01-30T01:53:22;102080.63;;;6.76;100.00
76404;BME280;65232;48.358;2.122;2024-01-30T01:53:48;102080.56;;;6.78;100.00
76404;BME280;65232;48.358;2.122;2024-01-30T01:54:14;102081.44;;;6.78;100.00
76404;BME280;65232;48.358;2.122;2024-01-30T01:54:41;102084.16;;;6.77;100.00
76404;BME280;65232;48.358;2.122;2024-01-30T01:55:07;102083.22;;;6.78;100.00
76404;BME280;65232;48.358;2.122;2024-01-30T01:55:37;102077.91;;;6.78;100.00
76404;BME280;65232;48.358;2.122;2024-01-30T01:56:03;102083.09;;;6.81;100.00
76404;BME280;65232;48.358;2.122;2024-01-30T01:56:29;102082.31;;;6.79;100.00
76404;BME280;65232;48.358;2.122;2024-01-30T01:56:55;102079.56;;;6.80;100.00
76404;BME280;65232;48.358;2.122;2024-01-30T01:57:20;102084.88;;;6.80;100.00
76404;BME280;65232;48.358;2.122;2024-01-30T01:57:47;102083.09;;;6.81;100.00
76404;BME280;65232;48.358;2.122;2024-01-30T01:58:13;102078.78;;;6.78;100.00
76404;BME280;65232;48.358;2.122;2024-01-30T01:58:38;102084.81;;;6.82;100.00
76404;BME280;65232;48.358;2.122;2024-01-30T01:59:05;102089.19;;;6.83;100.00
76404;BME280;65232;48.358;2.122;2024-01-30T01:59:34;102077.72;;;6.82;100.00
76404;BME280;65232;48.358;2.122;2024-01-30T02:00:01;102084.09;;;6.78;100.00
76404;BME280;65232;48.358;2.122;2024-01-30T02:00:27;102083.22;;;6.78;100.00
76404;BME280;65232;48.358;2.122;2024-01-30T02:00:53;102089.28;;;6.81;100.00
76404;BME280;65232;48.358;2.122;2024-01-30T02:01:19;102084.03;;;6.80;100.00
76404;BME280;65232;48.358;2.122;2024-01-30T02:01:46;102082.22;;;6.80;100.00
76404;BME280;65232;48.358;2.122;2024-01-30T02:02:14;102079.72;;;6.77;100.00
76404;BME280;65232;48.358;2.122;2024-01-30T02:02:43;102081.44;;;6.78;100.00
76404;BME280;65232;48.358;2.122;2024-01-30T02:03:10;102085.81;;;6.79;100.00
76404;BME280;65232;48.358;2.122;2024-01-30T02:03:37;102085.03;;;6.77;100.00
76404;BME280;65232;48.358;2.122;2024-01-30T02:04:03;102087.69;;;6.77;100.00
76404;BME280;65232;48.358;2.122;2024-01-30T02:04:29;102084.16;;;6.77;100.00
76404;BME280;65232;48.358;2.122;2024-01-30T02:04:54;102081.50;;;6.77;100.00
76404;BME280;65232;48.358;2.122;2024-01-30T02:05:21;102083.31;;;6.76;100.00
76404;BME280;65232;48.358;2.122;2024-01-30T02:05:46;102079.63;;;6.79;100.00
76404;BME280;65232;48.358;2.122;2024-01-30T02:06:13;102084.66;;;6.85;100.00
76404;BME280;65232;48.358;2.122;2024-01-30T02:06:39;102080.44;;;6.81;100.00
76404;BME280;65232;48.358;2.122;2024-01-30T02:07:05;102080.25;;;6.84;100.00
76404;BME280;65232;48.358;2.122;2024-01-30T02:07:31;102079.50;;;6.82;100.00
76404;BME280;65232;48.358;2.122;2024-01-30T02:07:56;102078.41;;;6.86;100.00
76404;BME280;65232;48.358;2.122;2024-01-30T02:08:23;102072.88;;;6.90;100.00
76404;BME280;65232;48.358;2.122;2024-01-30T02:08:49;102079.34;;;6.85;100.00
76404;BME280;65232;48.358;2.122;2024-01-30T02:09:14;102081.06;;;6.86;100.00
76404;BME280;65232;48.358;2.122;2024-01-30T02:09:40;102084.53;;;6.88;100.00
76404;BME280;65232;48.358;2.122;2024-01-30T02:10:07;102070.34;;;6.87;100.00
76404;BME280;65232;48.358;2.122;2024-01-30T02:10:33;102078.34;;;6.87;100.00
76404;BME280;65232;48.358;2.122;2024-01-30T02:10:59;102076.59;;;6.86;100.00
76404;BME280;65232;48.358;2.122;2024-01-30T02:11:24;102080.00;;;6.90;100.00
76404;BME280;65232;48.358;2.122;2024-01-30T02:11:50;102071.16;;;6.89;100.00
76404;BME280;65232;48.358;2.122;2024-01-30T02:12:18;102070.00;;;6.95;100.00
76404;BME280;65232;48.358;2.122;2024-01-30T02:12:44;102070.94;;;6.94;100.00
76404;BME280;65232;48.358;2.122;2024-01-30T02:13:09;102074.41;;;6.96;100.00
76404;BME280;65232;48.358;2.122;2024-01-30T02:13:35;102071.88;;;6.93;100.00
76404;BME280;65232;48.358;2.122;2024-01-30T02:14:04;102070.88;;;6.95;100.00
76404;BME280;65232;48.358;2.122;2024-01-30T02:14:30;102076.13;;;6.97;100.00
76404;BME280;65232;48.358;2.122;2024-01-30T02:14:55;102080.47;;;6.98;100.00
76404;BME280;65232;48.358;2.122;2024-01-30T02:15:23;102074.16;;;7.00;100.00